Zellwood, FL

12:29 PM EST on December 20, 2014 (GMT -0500)
The Villages | Change Station
CLOSE
Current Station
Airport
Location: The Villages,
Elevation: 89 ft
Nearby Weather Stations

Elev 89 ft 28.94 °N, 81.97 °W | Updated 34 minutes ago

Clear
Clear
72 °F
Feels Like 72 °F
N
0
Wind Variable Wind from North
Gusts mph

Today
High -- | Low -- °F
--% Chance of Precip.
Yesterday
High -- | Low -- °F
Precip. -- in
7:14 AM 5:33 PM
Waning Crescent, 2% visible
Pressure 30.01 in
Visibility 8.0 miles
Clouds
Dew Point 59 °F
Humidity 64%
Rainfall 0.00 in
Snow Depth Not available.
UV Not available.
Pollen 6.80 out of 12
Air Quality Not available.
Flu Activity Not available.
METAR KVVG 201655Z AUTO 00000KT 8SM 22/15 A3001 RMK A01

More Conditions Fewer Conditions

Pressure 30.01 in
Visibility 8.0 miles
Clouds
Dew Point 59 °F
Humidity 64%
Rainfall 0.00 in
Snow Depth Not available.
UV Not available.
Pollen 6.80 out of 12
Air Quality Not available.
Flu Activity Not available.
METAR KVVG 201655Z AUTO 00000KT 8SM 22/15 A3001 RMK A01

More Conditions Fewer Conditions

10-Day Weather Forecast

Almanac

Astronomy

Dec. 20, 2014 Rise Set
Actual Time
Civil Twilight
Nautical Twilight
Astronomical Twilight
Moon
Length of Visible Light
Length of Day
Tomorrow will be .
, % of the Moon is Illuminated

Today's Extremes

State Highs State Lows

Community

WunderPhotos

Upload Photos

1,779,226 photos uploaded!

WunderBlogs® & News

Nearby

Air Quality

  Air Quality AQ Index Pollutant
Not available.

Snow Depth

Station Depth Elevation

Earthquake Activity

City Distance Mag. Time & Date
Minimum magnitude displayed is 2.5.

Coastal Water Temperatures

Place Temperature

Nearby Weather Stations